Adams Field
KLIT : now visible

Airfield :











YOU CAN JOIN US ON...

 
LOGIN :

Register | Disclaimer

   EN    FR    IT 

 









Legend :    VFR   Marginal VFR   IFR   Intensive IFR   Very Intensive IFR
Visi :
Ceiling :
>= 8 km
>= 3000ft
5 to 8 km
1000 to 3000 ft
1500m to 5 km
500 to 1000 ft
800 to 1500m
200 to 500 ft
< 800m
< 200 ft
Symbols :   Thunderstorms  Fog  Heavy snow  Heavy precipitations  Wind > 20 kt






- Airport Elevation : 262 ft
- IATA code : LIT


KLIT - Adams Field

CURRENT METAR :
  • 042253Z 31008KT 10SM CLR 09/01 A3014 RMK AO2 SLP211 T00890006 $

EXPIRED METARs :
  • 042153Z 32009KT 10SM CLR 11/01 A3014 RMK AO2 SLP208 T01110006 $
  • 042053Z 30008KT 10SM CLR 12/01 A3013 RMK AO2 SLP206 T01170006 56016 $

TAF KLIT
Valid from the 04 at 18:00 until the 05 at 18:00 UTC


041720Z 0418/0518 28009KT P6SM SCT020 BKN035
FM042100 28009KT P6SM SCT060
FM050000 VRB03KT P6SM SKC
FM051600 05006KT P6SM SKC
KZME FIR / North America



MET'MAP, your aeronautical weather chart ! - Copyright ORBIFLY December 2007 - Disclaimer

ORBIFLY MET'MAP TEAM :

Programming & Development : Alexandra Zaïnal
Concept & original design : Baudouin d'Aumeries
Assistance for programming : Marc-Olivier Méhu
Technical & hardware support : Manuel Goepfert

Contact : metmap@orbifly.com




SOURCES & CREDITS :

   NOAA       Earth
Advisory